»·PEaware :: JNY60 KSLC-KJAC

JNY60 :: KSLC-KJAC

FLIGHT INFORMATION

Flight Status: Arrived
Operator: Unknown
More flights by this operator :: More flights under this callsign
Pilot: Max W. (2591)
Aircraft: BOEING 757-200
(B752)
More flights by this aircraft type
Origin: KSLC Salt Lake City Intl
United States
Destination: KJAC Jackson Hole
United States
More flights between these airports :: More routes between these airports
Route: RUGGD1 HOLTR DNW
File this flight plan on PilotEdge
Remarks: LOVE YOU MC
Altitude:
(Current/Filed)
28,000ft
Speed:
(Current/Filed)
450kts
Departed: 08-Oct-19 02:39 PM
Arrived: 08-Oct-19 03:21 PM
Distance/Time
Traveled:
177nm/0:42
Distance/Time
To Go:
Arrived

Flight Plot

Page will automatically refresh every two minutes.

Flight plan parsing failed; only flown route is shown


Map Options




Map Legend


Flown Route
Filed Route
Departure Airport
Arrival Airport
Navaid (VOR, NDB)
Fix

Horizontal Profiles

Position Reports

Time Latitude Longitude Heading Altitude Ground
Speed
08-Oct-19 14:03 40.779788 -111.958523 180 4239ft 0kts
08-Oct-19 14:04 40.779788 -111.958523 180 4239ft 0kts
08-Oct-19 14:05 40.779788 -111.958523 180 4239ft 0kts
08-Oct-19 14:06 40.779788 -111.958523 180 4239ft 0kts
08-Oct-19 14:07 40.779788 -111.958523 180 4239ft 0kts
08-Oct-19 14:08 40.779788 -111.958523 180 4239ft 0kts
08-Oct-19 14:09 40.779788 -111.958523 180 4239ft 0kts
08-Oct-19 14:10 40.779787 -111.958523 180 4239ft 0kts
08-Oct-19 14:11 40.779787 -111.958523 180 4239ft 0kts
08-Oct-19 14:12 40.779787 -111.958523 180 4239ft 0kts
08-Oct-19 14:13 40.779787 -111.958523 180 4239ft 0kts
08-Oct-19 14:14 40.779787 -111.958523 180 4239ft 0kts
08-Oct-19 14:15 40.779787 -111.958523 180 4239ft 0kts
08-Oct-19 14:16 40.779787 -111.958523 180 4239ft 0kts
08-Oct-19 14:17 40.779787 -111.958523 180 4239ft 0kts
08-Oct-19 14:18 40.779787 -111.958523 180 4239ft 0kts
08-Oct-19 14:19 40.779787 -111.958523 180 4239ft 0kts
08-Oct-19 14:20 40.779787 -111.958523 180 4239ft 0kts
08-Oct-19 14:21 40.779787 -111.958523 180 4239ft 0kts
08-Oct-19 14:22 40.779787 -111.958523 180 4239ft 0kts
08-Oct-19 14:23 40.779787 -111.958523 180 4239ft 0kts
08-Oct-19 14:24 40.779787 -111.958523 180 4239ft 0kts
08-Oct-19 14:25 40.779787 -111.958523 180 4239ft 0kts
08-Oct-19 14:26 40.779787 -111.958523 180 4239ft 0kts
08-Oct-19 14:28 40.779787 -111.958523 180 4239ft 0kts
08-Oct-19 14:29 40.779787 -111.958523 180 4239ft 0kts
08-Oct-19 14:30 40.779787 -111.958523 180 4239ft 0kts
08-Oct-19 14:31 40.779787 -111.958523 180 4239ft 0kts
08-Oct-19 14:32 40.778422 -111.959239 236 4238ft 7kts
08-Oct-19 14:33 40.777591 -111.960628 180 4238ft 8kts
08-Oct-19 14:34 40.774856 -111.960634 179 4239ft 4kts
08-Oct-19 14:35 40.772886 -111.960673 212 4239ft 0kts
08-Oct-19 14:36 40.772886 -111.960673 212 4239ft 0kts
08-Oct-19 14:37 40.772884 -111.960675 211 4239ft 0kts
08-Oct-19 14:38 40.772908 -111.962075 357 4238ft 3kts
08-Oct-19 14:39 40.795981 -111.962018 0 4840ft 189kts
08-Oct-19 14:40 40.834954 -112.002890 306 7714ft 240kts
08-Oct-19 14:41 40.876797 -112.068826 329 10023ft 216kts
08-Oct-19 14:42 40.938980 -112.047654 13 12554ft 273kts
08-Oct-19 14:43 41.023678 -112.021323 19 15365ft 333kts
08-Oct-19 14:44 41.081414 -111.923932 65 18005ft 361kts
08-Oct-19 14:45 41.124079 -111.806900 51 20457ft 377kts
08-Oct-19 14:46 41.217451 -111.748709 4 23534ft 400kts
08-Oct-19 14:47 41.330274 -111.721625 4 27380ft 425kts
08-Oct-19 14:47 41.427313 -111.692549 10 27963ft 433kts
08-Oct-19 14:49 41.562122 -111.639862 10 27958ft 434kts
08-Oct-19 14:50 41.677781 -111.594338 10 27958ft 434kts
08-Oct-19 14:50 41.774233 -111.556237 10 27959ft 434kts
08-Oct-19 14:51 41.891235 -111.526098 3 27959ft 429kts
08-Oct-19 14:53 42.028123 -111.495211 3 27960ft 429kts
08-Oct-19 14:53 42.122152 -111.473872 3 27959ft 429kts
08-Oct-19 14:54 42.239791 -111.447087 3 27973ft 429kts
08-Oct-19 14:55 42.353464 -111.395479 21 27981ft 441kts
08-Oct-19 14:56 42.459548 -111.321557 22 27978ft 442kts
08-Oct-19 14:57 42.568368 -111.244998 22 27979ft 442kts
08-Oct-19 14:58 42.677490 -111.167893 22 27980ft 442kts
08-Oct-19 14:59 42.786043 -111.090881 22 27981ft 441kts
08-Oct-19 15:00 42.894728 -111.013467 22 27982ft 440kts
08-Oct-19 15:01 43.004072 -110.935282 21 27984ft 450kts
08-Oct-19 15:02 43.110560 -110.858819 21 27961ft 452kts
08-Oct-19 15:03 43.221975 -110.778520 22 27654ft 456kts
08-Oct-19 15:04 43.332230 -110.698686 22 25758ft 442kts
08-Oct-19 15:05 43.439854 -110.620472 23 23280ft 436kts
08-Oct-19 15:06 43.546117 -110.542900 23 20787ft 420kts
08-Oct-19 15:07 43.644511 -110.470816 23 18304ft 390kts
08-Oct-19 15:08 43.738063 -110.402018 24 15959ft 363kts
08-Oct-19 15:09 43.814037 -110.399260 298 14942ft 238kts
08-Oct-19 15:10 43.817376 -110.482437 261 12104ft 214kts
08-Oct-19 15:11 43.807876 -110.549735 242 10943ft 129kts
08-Oct-19 15:12 43.794027 -110.590557 242 10224ft 116kts
08-Oct-19 15:13 43.776797 -110.626926 220 9815ft 116kts
08-Oct-19 15:14 43.751426 -110.655267 220 9261ft 118kts
08-Oct-19 15:15 43.725743 -110.679851 203 8706ft 117kts
08-Oct-19 15:16 43.695432 -110.694686 204 8122ft 115kts
08-Oct-19 15:17 43.665360 -110.709374 203 7508ft 114kts
08-Oct-19 15:18 43.635646 -110.723868 203 6899ft 113kts
08-Oct-19 15:19 43.607588 -110.737626 199 6432ft 58kts
08-Oct-19 15:20 43.599067 -110.740528 129 6431ft 14kts

Navigation Log

Ident Type
Flight plan parsing failed, navigation log unavailable